sensor_id;sensor_type;location;lat;lon;timestamp;P1;durP1;ratioP1;P2;durP2;ratioP2
76262;SDS011;65080;50.908;6.916;2023-07-31T00:01:17;7.93;;;3.50;;
76262;SDS011;65080;50.908;6.916;2023-07-31T00:03:45;4.93;;;2.70;;
76262;SDS011;65080;50.908;6.916;2023-07-31T00:06:14;5.60;;;2.63;;
76262;SDS011;65080;50.908;6.916;2023-07-31T00:08:42;5.70;;;3.00;;
76262;SDS011;65080;50.908;6.916;2023-07-31T00:11:10;7.17;;;3.00;;
76262;SDS011;65080;50.908;6.916;2023-07-31T00:13:38;7.57;;;3.40;;
76262;SDS011;65080;50.908;6.916;2023-07-31T00:16:07;7.13;;;2.97;;
76262;SDS011;65080;50.908;6.916;2023-07-31T00:18:37;6.57;;;2.90;;
76262;SDS011;65080;50.908;6.916;2023-07-31T00:21:05;11.53;;;3.90;;
76262;SDS011;65080;50.908;6.916;2023-07-31T00:23:33;4.97;;;3.30;;
76262;SDS011;65080;50.908;6.916;2023-07-31T00:26:01;6.80;;;3.10;;
76262;SDS011;65080;50.908;6.916;2023-07-31T00:28:30;6.47;;;2.80;;
76262;SDS011;65080;50.908;6.916;2023-07-31T00:30:58;5.10;;;2.90;;
76262;SDS011;65080;50.908;6.916;2023-07-31T00:33:26;7.37;;;2.73;;
76262;SDS011;65080;50.908;6.916;2023-07-31T00:35:56;6.17;;;3.27;;
76262;SDS011;65080;50.908;6.916;2023-07-31T00:38:24;6.20;;;3.17;;
76262;SDS011;65080;50.908;6.916;2023-07-31T00:40:52;10.40;;;3.07;;
76262;SDS011;65080;50.908;6.916;2023-07-31T00:43:21;3.80;;;2.63;;
76262;SDS011;65080;50.908;6.916;2023-07-31T00:45:49;8.07;;;2.67;;
76262;SDS011;65080;50.908;6.916;2023-07-31T00:48:18;6.03;;;2.70;;
76262;SDS011;65080;50.908;6.916;2023-07-31T00:50:46;4.30;;;2.03;;
76262;SDS011;65080;50.908;6.916;2023-07-31T00:53:16;7.10;;;2.70;;
76262;SDS011;65080;50.908;6.916;2023-07-31T00:55:44;3.13;;;2.20;;
76262;SDS011;65080;50.908;6.916;2023-07-31T00:58:13;11.60;;;3.00;;
76262;SDS011;65080;50.908;6.916;2023-07-31T01:00:41;3.70;;;2.33;;
76262;SDS011;65080;50.908;6.916;2023-07-31T01:03:10;6.03;;;2.17;;
76262;SDS011;65080;50.908;6.916;2023-07-31T01:05:42;5.47;;;2.60;;
76262;SDS011;65080;50.908;6.916;2023-07-31T01:08:28;8.57;;;2.93;;
76262;SDS011;65080;50.908;6.916;2023-07-31T01:11:07;5.20;;;2.30;;
76262;SDS011;65080;50.908;6.916;2023-07-31T01:13:43;5.97;;;2.83;;
76262;SDS011;65080;50.908;6.916;2023-07-31T01:16:12;4.30;;;2.20;;
76262;SDS011;65080;50.908;6.916;2023-07-31T01:18:40;7.33;;;2.73;;
76262;SDS011;65080;50.908;6.916;2023-07-31T01:21:14;5.00;;;2.50;;
76262;SDS011;65080;50.908;6.916;2023-07-31T01:26:49;8.77;;;2.70;;
76262;SDS011;65080;50.908;6.916;2023-07-31T01:29:23;4.80;;;2.60;;
76262;SDS011;65080;50.908;6.916;2023-07-31T01:32:01;5.50;;;2.77;;
76262;SDS011;65080;50.908;6.916;2023-07-31T01:34:30;3.63;;;2.03;;
76262;SDS011;65080;50.908;6.916;2023-07-31T01:36:59;8.67;;;2.60;;
76262;SDS011;65080;50.908;6.916;2023-07-31T01:39:28;8.13;;;2.40;;
76262;SDS011;65080;50.908;6.916;2023-07-31T01:41:57;9.33;;;2.63;;
76262;SDS011;65080;50.908;6.916;2023-07-31T01:44:26;7.30;;;3.40;;
76262;SDS011;65080;50.908;6.916;2023-07-31T01:46:54;7.30;;;2.30;;
76262;SDS011;65080;50.908;6.916;2023-07-31T01:49:23;4.77;;;2.30;;
76262;SDS011;65080;50.908;6.916;2023-07-31T01:51:51;6.87;;;2.43;;
76262;SDS011;65080;50.908;6.916;2023-07-31T01:54:19;4.70;;;2.30;;
76262;SDS011;65080;50.908;6.916;2023-07-31T01:56:48;4.77;;;2.03;;
76262;SDS011;65080;50.908;6.916;2023-07-31T01:59:17;4.87;;;2.40;;
76262;SDS011;65080;50.908;6.916;2023-07-31T02:01:45;5.80;;;2.80;;
76262;SDS011;65080;50.908;6.916;2023-07-31T02:04:14;5.90;;;2.73;;
76262;SDS011;65080;50.908;6.916;2023-07-31T02:06:43;7.83;;;2.93;;
76262;SDS011;65080;50.908;6.916;2023-07-31T02:09:11;8.70;;;2.10;;
76262;SDS011;65080;50.908;6.916;2023-07-31T02:11:39;7.57;;;2.63;;
76262;SDS011;65080;50.908;6.916;2023-07-31T02:14:07;8.67;;;2.53;;
76262;SDS011;65080;50.908;6.916;2023-07-31T02:16:37;9.30;;;2.87;;
76262;SDS011;65080;50.908;6.916;2023-07-31T02:19:06;6.33;;;2.33;;
76262;SDS011;65080;50.908;6.916;2023-07-31T02:21:34;12.43;;;3.30;;
76262;SDS011;65080;50.908;6.916;2023-07-31T02:24:02;7.00;;;2.70;;
76262;SDS011;65080;50.908;6.916;2023-07-31T02:26:31;6.90;;;2.93;;
76262;SDS011;65080;50.908;6.916;2023-07-31T02:28:59;4.97;;;2.50;;
76262;SDS011;65080;50.908;6.916;2023-07-31T02:31:27;4.87;;;2.60;;
76262;SDS011;65080;50.908;6.916;2023-07-31T02:33:57;6.20;;;3.30;;
76262;SDS011;65080;50.908;6.916;2023-07-31T02:36:25;6.53;;;2.53;;
76262;SDS011;65080;50.908;6.916;2023-07-31T02:38:53;9.00;;;2.90;;
76262;SDS011;65080;50.908;6.916;2023-07-31T02:41:22;6.93;;;2.90;;
76262;SDS011;65080;50.908;6.916;2023-07-31T02:43:50;5.23;;;2.50;;
76262;SDS011;65080;50.908;6.916;2023-07-31T02:46:19;4.50;;;3.10;;
76262;SDS011;65080;50.908;6.916;2023-07-31T02:48:51;6.17;;;2.50;;
76262;SDS011;65080;50.908;6.916;2023-07-31T02:51:20;6.73;;;3.10;;
76262;SDS011;65080;50.908;6.916;2023-07-31T02:53:49;5.13;;;2.50;;
76262;SDS011;65080;50.908;6.916;2023-07-31T02:56:17;9.27;;;3.30;;
76262;SDS011;65080;50.908;6.916;2023-07-31T02:58:45;8.63;;;2.63;;
76262;SDS011;65080;50.908;6.916;2023-07-31T03:01:14;8.83;;;2.83;;
76262;SDS011;65080;50.908;6.916;2023-07-31T03:03:42;10.03;;;3.57;;
76262;SDS011;65080;50.908;6.916;2023-07-31T03:06:10;3.27;;;2.23;;
76262;SDS011;65080;50.908;6.916;2023-07-31T03:08:40;7.10;;;3.10;;
76262;SDS011;65080;50.908;6.916;2023-07-31T03:11:08;7.73;;;2.77;;
76262;SDS011;65080;50.908;6.916;2023-07-31T03:13:36;7.37;;;2.93;;
76262;SDS011;65080;50.908;6.916;2023-07-31T03:16:05;7.10;;;3.00;;
76262;SDS011;65080;50.908;6.916;2023-07-31T03:18:33;6.50;;;3.30;;
76262;SDS011;65080;50.908;6.916;2023-07-31T03:21:02;11.53;;;3.70;;
76262;SDS011;65080;50.908;6.916;2023-07-31T03:23:30;5.80;;;2.80;;
76262;SDS011;65080;50.908;6.916;2023-07-31T03:26:00;9.47;;;3.50;;
76262;SDS011;65080;50.908;6.916;2023-07-31T03:28:29;9.23;;;3.23;;
76262;SDS011;65080;50.908;6.916;2023-07-31T03:30:58;8.40;;;3.80;;
76262;SDS011;65080;50.908;6.916;2023-07-31T03:33:26;5.90;;;3.13;;
76262;SDS011;65080;50.908;6.916;2023-07-31T03:35:54;6.33;;;3.53;;
76262;SDS011;65080;50.908;6.916;2023-07-31T03:38:22;7.47;;;3.17;;
76262;SDS011;65080;50.908;6.916;2023-07-31T03:40:51;9.13;;;3.47;;
76262;SDS011;65080;50.908;6.916;2023-07-31T03:43:20;4.83;;;3.20;;
76262;SDS011;65080;50.908;6.916;2023-07-31T03:45:49;6.90;;;3.30;;
76262;SDS011;65080;50.908;6.916;2023-07-31T03:48:17;14.17;;;6.37;;
76262;SDS011;65080;50.908;6.916;2023-07-31T03:50:45;6.57;;;3.50;;
76262;SDS011;65080;50.908;6.916;2023-07-31T03:53:14;7.93;;;4.07;;
76262;SDS011;65080;50.908;6.916;2023-07-31T03:55:42;8.13;;;4.07;;
76262;SDS011;65080;50.908;6.916;2023-07-31T03:58:10;9.47;;;4.30;;
76262;SDS011;65080;50.908;6.916;2023-07-31T04:00:40;7.77;;;3.87;;
76262;SDS011;65080;50.908;6.916;2023-07-31T04:03:09;10.17;;;3.40;;
76262;SDS011;65080;50.908;6.916;2023-07-31T04:05:38;11.07;;;4.40;;
76262;SDS011;65080;50.908;6.916;2023-07-31T04:08:07;6.67;;;3.80;;
76262;SDS011;65080;50.908;6.916;2023-07-31T04:10:35;7.30;;;3.90;;
76262;SDS011;65080;50.908;6.916;2023-07-31T04:13:03;5.90;;;3.50;;
76262;SDS011;65080;50.908;6.916;2023-07-31T04:15:32;6.03;;;3.23;;
76262;SDS011;65080;50.908;6.916;2023-07-31T04:18:01;4.80;;;2.80;;
76262;SDS011;65080;50.908;6.916;2023-07-31T04:20:30;6.70;;;3.50;;
76262;SDS011;65080;50.908;6.916;2023-07-31T04:22:58;6.23;;;3.47;;
76262;SDS011;65080;50.908;6.916;2023-07-31T04:25:27;7.10;;;3.40;;
76262;SDS011;65080;50.908;6.916;2023-07-31T04:27:55;7.40;;;3.50;;
76262;SDS011;65080;50.908;6.916;2023-07-31T04:30:24;7.30;;;3.20;;
76262;SDS011;65080;50.908;6.916;2023-07-31T04:32:52;7.93;;;3.70;;
76262;SDS011;65080;50.908;6.916;2023-07-31T04:35:22;8.03;;;4.40;;
76262;SDS011;65080;50.908;6.916;2023-07-31T04:37:50;7.53;;;3.23;;
76262;SDS011;65080;50.908;6.916;2023-07-31T04:40:18;9.50;;;3.97;;
76262;SDS011;65080;50.908;6.916;2023-07-31T04:42:47;7.33;;;3.63;;
76262;SDS011;65080;50.908;6.916;2023-07-31T04:45:15;8.97;;;4.00;;
76262;SDS011;65080;50.908;6.916;2023-07-31T04:47:44;7.87;;;3.50;;
76262;SDS011;65080;50.908;6.916;2023-07-31T04:50:12;7.17;;;3.20;;
76262;SDS011;65080;50.908;6.916;2023-07-31T04:52:41;8.10;;;3.70;;
76262;SDS011;65080;50.908;6.916;2023-07-31T04:55:10;9.50;;;4.13;;
76262;SDS011;65080;50.908;6.916;2023-07-31T04:57:38;10.50;;;3.60;;
76262;SDS011;65080;50.908;6.916;2023-07-31T05:00:06;10.17;;;3.80;;
76262;SDS011;65080;50.908;6.916;2023-07-31T05:02:35;10.50;;;3.80;;
76262;SDS011;65080;50.908;6.916;2023-07-31T05:05:04;7.83;;;3.57;;
76262;SDS011;65080;50.908;6.916;2023-07-31T05:07:32;4.63;;;3.00;;
76262;SDS011;65080;50.908;6.916;2023-07-31T05:10:02;7.47;;;3.30;;
76262;SDS011;65080;50.908;6.916;2023-07-31T05:12:31;6.90;;;3.70;;
76262;SDS011;65080;50.908;6.916;2023-07-31T05:14:59;6.73;;;3.67;;
76262;SDS011;65080;50.908;6.916;2023-07-31T05:17:28;7.63;;;3.53;;
76262;SDS011;65080;50.908;6.916;2023-07-31T05:19:56;4.23;;;2.83;;
76262;SDS011;65080;50.908;6.916;2023-07-31T05:22:24;5.00;;;3.07;;
76262;SDS011;65080;50.908;6.916;2023-07-31T05:24:53;5.90;;;3.10;;
76262;SDS011;65080;50.908;6.916;2023-07-31T05:27:23;4.00;;;2.80;;
76262;SDS011;65080;50.908;6.916;2023-07-31T05:29:51;6.07;;;2.83;;
76262;SDS011;65080;50.908;6.916;2023-07-31T05:32:19;6.53;;;3.57;;
76262;SDS011;65080;50.908;6.916;2023-07-31T05:34:50;7.00;;;2.97;;
76262;SDS011;65080;50.908;6.916;2023-07-31T05:37:18;6.60;;;3.10;;
76262;SDS011;65080;50.908;6.916;2023-07-31T05:39:47;6.63;;;3.97;;
76262;SDS011;65080;50.908;6.916;2023-07-31T05:42:15;5.17;;;3.20;;
76262;SDS011;65080;50.908;6.916;2023-07-31T05:44:45;8.07;;;4.10;;
76262;SDS011;65080;50.908;6.916;2023-07-31T05:47:13;6.07;;;3.67;;
76262;SDS011;65080;50.908;6.916;2023-07-31T05:49:41;7.43;;;3.63;;
76262;SDS011;65080;50.908;6.916;2023-07-31T05:52:10;7.07;;;3.30;;
76262;SDS011;65080;50.908;6.916;2023-07-31T05:54:39;9.27;;;3.33;;
76262;SDS011;65080;50.908;6.916;2023-07-31T05:57:07;4.90;;;3.03;;
76262;SDS011;65080;50.908;6.916;2023-07-31T05:59:35;10.60;;;3.17;;
76262;SDS011;65080;50.908;6.916;2023-07-31T06:02:05;4.50;;;3.13;;
76262;SDS011;65080;50.908;6.916;2023-07-31T06:04:34;8.17;;;3.57;;
76262;SDS011;65080;50.908;6.916;2023-07-31T06:07:02;5.67;;;2.80;;
76262;SDS011;65080;50.908;6.916;2023-07-31T06:09:31;6.70;;;3.33;;
76262;SDS011;65080;50.908;6.916;2023-07-31T06:11:59;5.43;;;3.10;;
76262;SDS011;65080;50.908;6.916;2023-07-31T06:14:28;6.30;;;3.80;;
76262;SDS011;65080;50.908;6.916;2023-07-31T06:16:56;6.13;;;3.50;;
76262;SDS011;65080;50.908;6.916;2023-07-31T06:19:26;6.67;;;3.13;;
76262;SDS011;65080;50.908;6.916;2023-07-31T06:21:54;7.07;;;3.30;;
76262;SDS011;65080;50.908;6.916;2023-07-31T06:24:22;4.20;;;3.10;;
76262;SDS011;65080;50.908;6.916;2023-07-31T06:26:50;6.10;;;2.47;;
76262;SDS011;65080;50.908;6.916;2023-07-31T06:29:19;7.40;;;3.40;;
76262;SDS011;65080;50.908;6.916;2023-07-31T06:31:48;11.03;;;3.73;;
76262;SDS011;65080;50.908;6.916;2023-07-31T06:34:17;4.90;;;3.27;;
76262;SDS011;65080;50.908;6.916;2023-07-31T06:36:47;6.03;;;3.03;;
76262;SDS011;65080;50.908;6.916;2023-07-31T06:39:15;5.27;;;2.90;;
76262;SDS011;65080;50.908;6.916;2023-07-31T06:41:43;7.60;;;3.90;;
76262;SDS011;65080;50.908;6.916;2023-07-31T06:44:12;7.70;;;3.60;;
76262;SDS011;65080;50.908;6.916;2023-07-31T06:46:40;7.50;;;3.60;;
76262;SDS011;65080;50.908;6.916;2023-07-31T06:49:08;5.77;;;3.50;;
76262;SDS011;65080;50.908;6.916;2023-07-31T06:51:36;7.13;;;4.10;;
76262;SDS011;65080;50.908;6.916;2023-07-31T06:54:07;7.13;;;3.50;;
76262;SDS011;65080;50.908;6.916;2023-07-31T06:56:35;8.97;;;4.30;;
76262;SDS011;65080;50.908;6.916;2023-07-31T06:59:07;10.77;;;3.80;;
76262;SDS011;65080;50.908;6.916;2023-07-31T07:01:35;6.73;;;3.90;;
76262;SDS011;65080;50.908;6.916;2023-07-31T07:04:03;8.87;;;3.83;;
76262;SDS011;65080;50.908;6.916;2023-07-31T07:06:32;6.77;;;3.27;;
76262;SDS011;65080;50.908;6.916;2023-07-31T07:09:00;5.90;;;3.30;;
76262;SDS011;65080;50.908;6.916;2023-07-31T07:11:31;12.60;;;3.77;;
76262;SDS011;65080;50.908;6.916;2023-07-31T07:13:59;7.57;;;3.07;;
76262;SDS011;65080;50.908;6.916;2023-07-31T07:16:28;6.60;;;3.23;;
76262;SDS011;65080;50.908;6.916;2023-07-31T07:18:56;5.10;;;2.80;;
76262;SDS011;65080;50.908;6.916;2023-07-31T07:21:31;5.27;;;3.47;;
76262;SDS011;65080;50.908;6.916;2023-07-31T07:23:59;4.30;;;3.10;;
76262;SDS011;65080;50.908;6.916;2023-07-31T07:26:27;5.90;;;3.40;;
76262;SDS011;65080;50.908;6.916;2023-07-31T07:28:57;6.17;;;3.37;;
76262;SDS011;65080;50.908;6.916;2023-07-31T07:31:28;7.07;;;3.53;;
76262;SDS011;65080;50.908;6.916;2023-07-31T07:33:56;9.53;;;3.50;;
76262;SDS011;65080;50.908;6.916;2023-07-31T07:36:25;4.67;;;3.67;;
76262;SDS011;65080;50.908;6.916;2023-07-31T07:38:55;5.30;;;3.67;;
76262;SDS011;65080;50.908;6.916;2023-07-31T07:41:24;8.33;;;4.33;;
76262;SDS011;65080;50.908;6.916;2023-07-31T07:43:52;7.27;;;3.77;;
76262;SDS011;65080;50.908;6.916;2023-07-31T07:46:22;10.47;;;4.10;;
76262;SDS011;65080;50.908;6.916;2023-07-31T07:48:50;7.00;;;3.37;;
76262;SDS011;65080;50.908;6.916;2023-07-31T07:51:18;6.90;;;3.83;;
76262;SDS011;65080;50.908;6.916;2023-07-31T07:53:47;6.63;;;3.67;;
76262;SDS011;65080;50.908;6.916;2023-07-31T07:56:15;6.40;;;3.30;;
76262;SDS011;65080;50.908;6.916;2023-07-31T07:58:43;7.57;;;3.97;;
76262;SDS011;65080;50.908;6.916;2023-07-31T08:01:12;6.30;;;3.23;;
76262;SDS011;65080;50.908;6.916;2023-07-31T08:03:42;7.23;;;2.93;;
76262;SDS011;65080;50.908;6.916;2023-07-31T08:06:10;5.13;;;3.63;;
76262;SDS011;65080;50.908;6.916;2023-07-31T08:08:39;8.47;;;3.30;;
76262;SDS011;65080;50.908;6.916;2023-07-31T08:11:07;8.00;;;2.67;;
76262;SDS011;65080;50.908;6.916;2023-07-31T08:13:35;4.00;;;2.47;;
76262;SDS011;65080;50.908;6.916;2023-07-31T08:16:04;10.37;;;2.93;;
76262;SDS011;65080;50.908;6.916;2023-07-31T08:18:33;5.77;;;2.57;;
76262;SDS011;65080;50.908;6.916;2023-07-31T08:21:02;5.00;;;2.60;;
76262;SDS011;65080;50.908;6.916;2023-07-31T08:23:31;5.97;;;3.40;;
76262;SDS011;65080;50.908;6.916;2023-07-31T08:25:59;4.37;;;2.40;;
76262;SDS011;65080;50.908;6.916;2023-07-31T08:28:27;5.70;;;2.70;;
76262;SDS011;65080;50.908;6.916;2023-07-31T08:30:56;8.90;;;3.10;;
76262;SDS011;65080;50.908;6.916;2023-07-31T08:33:24;4.57;;;2.80;;
76262;SDS011;65080;50.908;6.916;2023-07-31T08:35:52;7.10;;;3.40;;
76262;SDS011;65080;50.908;6.916;2023-07-31T08:38:22;8.70;;;3.40;;
76262;SDS011;65080;50.908;6.916;2023-07-31T08:40:52;5.03;;;2.97;;
76262;SDS011;65080;50.908;6.916;2023-07-31T08:43:20;8.00;;;3.27;;
76262;SDS011;65080;50.908;6.916;2023-07-31T08:45:53;9.57;;;3.30;;
76262;SDS011;65080;50.908;6.916;2023-07-31T08:48:22;7.17;;;3.47;;
76262;SDS011;65080;50.908;6.916;2023-07-31T08:50:51;5.10;;;3.00;;
76262;SDS011;65080;50.908;6.916;2023-07-31T08:53:20;4.73;;;3.13;;
76262;SDS011;65080;50.908;6.916;2023-07-31T08:55:51;7.67;;;3.53;;
76262;SDS011;65080;50.908;6.916;2023-07-31T08:58:21;7.30;;;3.30;;
76262;SDS011;65080;50.908;6.916;2023-07-31T09:00:50;8.43;;;3.73;;
76262;SDS011;65080;50.908;6.916;2023-07-31T09:03:21;5.53;;;2.60;;
76262;SDS011;65080;50.908;6.916;2023-07-31T09:05:52;4.07;;;3.03;;
76262;SDS011;65080;50.908;6.916;2023-07-31T09:08:22;7.07;;;3.40;;
76262;SDS011;65080;50.908;6.916;2023-07-31T09:10:54;10.40;;;4.30;;
76262;SDS011;65080;50.908;6.916;2023-07-31T09:13:27;9.93;;;3.90;;
76262;SDS011;65080;50.908;6.916;2023-07-31T09:15:57;7.00;;;3.30;;
76262;SDS011;65080;50.908;6.916;2023-07-31T09:18:26;9.33;;;3.40;;
76262;SDS011;65080;50.908;6.916;2023-07-31T09:21:01;4.47;;;3.13;;
76262;SDS011;65080;50.908;6.916;2023-07-31T09:23:40;5.50;;;2.93;;
76262;SDS011;65080;50.908;6.916;2023-07-31T09:26:10;5.40;;;2.97;;
76262;SDS011;65080;50.908;6.916;2023-07-31T09:28:55;4.17;;;2.80;;
76262;SDS011;65080;50.908;6.916;2023-07-31T09:31:33;4.93;;;2.37;;
76262;SDS011;65080;50.908;6.916;2023-07-31T09:34:07;5.30;;;2.73;;
76262;SDS011;65080;50.908;6.916;2023-07-31T09:36:39;6.83;;;3.20;;
76262;SDS011;65080;50.908;6.916;2023-07-31T09:39:08;7.57;;;2.63;;
76262;SDS011;65080;50.908;6.916;2023-07-31T09:41:40;4.17;;;2.47;;
76262;SDS011;65080;50.908;6.916;2023-07-31T09:44:10;8.33;;;2.70;;
76262;SDS011;65080;50.908;6.916;2023-07-31T09:46:38;4.17;;;2.40;;
76262;SDS011;65080;50.908;6.916;2023-07-31T09:49:07;3.03;;;2.20;;
76262;SDS011;65080;50.908;6.916;2023-07-31T09:51:37;4.70;;;2.60;;
76262;SDS011;65080;50.908;6.916;2023-07-31T09:54:09;4.67;;;2.90;;
76262;SDS011;65080;50.908;6.916;2023-07-31T09:56:41;7.37;;;2.40;;
76262;SDS011;65080;50.908;6.916;2023-07-31T09:59:12;4.20;;;2.13;;
76262;SDS011;65080;50.908;6.916;2023-07-31T10:01:42;6.47;;;2.30;;
76262;SDS011;65080;50.908;6.916;2023-07-31T10:04:12;6.60;;;2.33;;
76262;SDS011;65080;50.908;6.916;2023-07-31T10:06:42;4.27;;;2.30;;
76262;SDS011;65080;50.908;6.916;2023-07-31T10:09:13;4.77;;;2.13;;
76262;SDS011;65080;50.908;6.916;2023-07-31T10:11:47;3.80;;;2.30;;
76262;SDS011;65080;50.908;6.916;2023-07-31T10:14:23;5.43;;;2.10;;
76262;SDS011;65080;50.908;6.916;2023-07-31T10:16:53;7.47;;;2.80;;
76262;SDS011;65080;50.908;6.916;2023-07-31T10:19:22;6.37;;;2.17;;
76262;SDS011;65080;50.908;6.916;2023-07-31T10:21:50;8.67;;;3.10;;
76262;SDS011;65080;50.908;6.916;2023-07-31T10:24:19;3.83;;;2.30;;
76262;SDS011;65080;50.908;6.916;2023-07-31T10:26:49;6.47;;;2.40;;
76262;SDS011;65080;50.908;6.916;2023-07-31T10:29:19;3.40;;;2.17;;
76262;SDS011;65080;50.908;6.916;2023-07-31T10:31:49;7.30;;;3.10;;
76262;SDS011;65080;50.908;6.916;2023-07-31T10:34:18;4.27;;;2.57;;
76262;SDS011;65080;50.908;6.916;2023-07-31T10:36:47;3.53;;;2.40;;
76262;SDS011;65080;50.908;6.916;2023-07-31T10:39:34;8.30;;;2.37;;
76262;SDS011;65080;50.908;6.916;2023-07-31T10:42:12;3.20;;;2.03;;
76262;SDS011;65080;50.908;6.916;2023-07-31T10:44:43;3.00;;;2.13;;
76262;SDS011;65080;50.908;6.916;2023-07-31T10:47:14;4.53;;;1.87;;
76262;SDS011;65080;50.908;6.916;2023-07-31T10:49:44;4.53;;;2.23;;
76262;SDS011;65080;50.908;6.916;2023-07-31T10:52:14;2.53;;;1.80;;
76262;SDS011;65080;50.908;6.916;2023-07-31T10:57:46;2.20;;;1.23;;
76262;SDS011;65080;50.908;6.916;2023-07-31T11:00:19;3.83;;;1.80;;
76262;SDS011;65080;50.908;6.916;2023-07-31T11:02:59;2.50;;;1.50;;
76262;SDS011;65080;50.908;6.916;2023-07-31T11:05:42;3.50;;;1.70;;
76262;SDS011;65080;50.908;6.916;2023-07-31T11:08:22;2.07;;;1.17;;
76262;SDS011;65080;50.908;6.916;2023-07-31T11:11:04;2.83;;;1.33;;
76262;SDS011;65080;50.908;6.916;2023-07-31T11:13:39;1.80;;;1.13;;
76262;SDS011;65080;50.908;6.916;2023-07-31T11:16:09;1.50;;;1.20;;
76262;SDS011;65080;50.908;6.916;2023-07-31T11:18:39;1.70;;;0.90;;
76262;SDS011;65080;50.908;6.916;2023-07-31T11:21:09;2.27;;;0.97;;
76262;SDS011;65080;50.908;6.916;2023-07-31T11:23:40;1.43;;;0.87;;
76262;SDS011;65080;50.908;6.916;2023-07-31T11:26:08;1.73;;;0.87;;
76262;SDS011;65080;50.908;6.916;2023-07-31T11:28:39;1.53;;;1.00;;
76262;SDS011;65080;50.908;6.916;2023-07-31T11:31:09;7.50;;;1.50;;
76262;SDS011;65080;50.908;6.916;2023-07-31T11:33:38;2.10;;;0.87;;
76262;SDS011;65080;50.908;6.916;2023-07-31T11:36:06;1.60;;;0.90;;
76262;SDS011;65080;50.908;6.916;2023-07-31T11:38:41;1.60;;;0.90;;
76262;SDS011;65080;50.908;6.916;2023-07-31T11:41:09;2.57;;;0.90;;
76262;SDS011;65080;50.908;6.916;2023-07-31T11:43:37;2.30;;;0.97;;
76262;SDS011;65080;50.908;6.916;2023-07-31T11:46:07;1.17;;;0.67;;
76262;SDS011;65080;50.908;6.916;2023-07-31T11:48:37;1.13;;;0.70;;
76262;SDS011;65080;50.908;6.916;2023-07-31T11:51:06;1.30;;;0.73;;
76262;SDS011;65080;50.908;6.916;2023-07-31T11:53:40;2.07;;;1.07;;
76262;SDS011;65080;50.908;6.916;2023-07-31T11:56:11;2.47;;;0.87;;
76262;SDS011;65080;50.908;6.916;2023-07-31T11:58:46;1.20;;;0.83;;
76262;SDS011;65080;50.908;6.916;2023-07-31T12:01:17;2.00;;;0.90;;
76262;SDS011;65080;50.908;6.916;2023-07-31T12:03:47;1.10;;;0.67;;
76262;SDS011;65080;50.908;6.916;2023-07-31T12:06:17;4.83;;;0.90;;
76262;SDS011;65080;50.908;6.916;2023-07-31T12:08:47;2.57;;;0.87;;
76262;SDS011;65080;50.908;6.916;2023-07-31T12:11:16;1.63;;;0.80;;
76262;SDS011;65080;50.908;6.916;2023-07-31T12:13:46;1.37;;;0.70;;
76262;SDS011;65080;50.908;6.916;2023-07-31T12:16:14;0.93;;;0.60;;
76262;SDS011;65080;50.908;6.916;2023-07-31T12:18:42;1.80;;;0.73;;
76262;SDS011;65080;50.908;6.916;2023-07-31T12:21:10;1.10;;;0.70;;
76262;SDS011;65080;50.908;6.916;2023-07-31T12:23:39;1.23;;;0.83;;
76262;SDS011;65080;50.908;6.916;2023-07-31T12:26:10;1.10;;;0.70;;
76262;SDS011;65080;50.908;6.916;2023-07-31T12:28:41;1.67;;;0.80;;
76262;SDS011;65080;50.908;6.916;2023-07-31T12:31:12;0.93;;;0.80;;
76262;SDS011;65080;50.908;6.916;2023-07-31T12:33:43;1.40;;;0.93;;
76262;SDS011;65080;50.908;6.916;2023-07-31T12:36:13;2.03;;;1.27;;
76262;SDS011;65080;50.908;6.916;2023-07-31T12:38:42;1.50;;;1.00;;
76262;SDS011;65080;50.908;6.916;2023-07-31T12:41:11;3.30;;;1.40;;
76262;SDS011;65080;50.908;6.916;2023-07-31T12:43:40;2.40;;;1.13;;
76262;SDS011;65080;50.908;6.916;2023-07-31T12:46:09;1.57;;;1.23;;
76262;SDS011;65080;50.908;6.916;2023-07-31T12:48:39;1.63;;;1.10;;
76262;SDS011;65080;50.908;6.916;2023-07-31T12:51:08;2.90;;;1.37;;
76262;SDS011;65080;50.908;6.916;2023-07-31T12:53:36;3.97;;;1.50;;
76262;SDS011;65080;50.908;6.916;2023-07-31T12:56:04;3.27;;;2.00;;
76262;SDS011;65080;50.908;6.916;2023-07-31T12:58:33;3.30;;;1.70;;
76262;SDS011;65080;50.908;6.916;2023-07-31T13:01:01;2.73;;;1.70;;
76262;SDS011;65080;50.908;6.916;2023-07-31T13:03:30;3.03;;;2.10;;
76262;SDS011;65080;50.908;6.916;2023-07-31T13:05:59;3.10;;;1.93;;
76262;SDS011;65080;50.908;6.916;2023-07-31T13:08:27;4.40;;;2.57;;
76262;SDS011;65080;50.908;6.916;2023-07-31T13:10:55;3.37;;;2.20;;
76262;SDS011;65080;50.908;6.916;2023-07-31T13:13:24;3.50;;;1.93;;
76262;SDS011;65080;50.908;6.916;2023-07-31T13:15:52;3.43;;;1.90;;
76262;SDS011;65080;50.908;6.916;2023-07-31T13:18:20;7.50;;;2.40;;
76262;SDS011;65080;50.908;6.916;2023-07-31T13:20:50;4.00;;;2.33;;
76262;SDS011;65080;50.908;6.916;2023-07-31T13:23:19;4.03;;;2.30;;
76262;SDS011;65080;50.908;6.916;2023-07-31T13:25:47;4.57;;;2.30;;
76262;SDS011;65080;50.908;6.916;2023-07-31T13:28:15;3.20;;;2.20;;
76262;SDS011;65080;50.908;6.916;2023-07-31T13:30:43;2.33;;;2.13;;
76262;SDS011;65080;50.908;6.916;2023-07-31T13:33:12;5.83;;;2.20;;
76262;SDS011;65080;50.908;6.916;2023-07-31T13:36:02;3.57;;;2.07;;
76262;SDS011;65080;50.908;6.916;2023-07-31T13:38:30;2.43;;;1.87;;
76262;SDS011;65080;50.908;6.916;2023-07-31T13:40:58;2.90;;;2.10;;
76262;SDS011;65080;50.908;6.916;2023-07-31T13:43:27;2.43;;;1.83;;
76262;SDS011;65080;50.908;6.916;2023-07-31T13:45:55;3.37;;;2.10;;
76262;SDS011;65080;50.908;6.916;2023-07-31T13:48:23;3.20;;;2.57;;
76262;SDS011;65080;50.908;6.916;2023-07-31T13:50:51;3.80;;;2.00;;
76262;SDS011;65080;50.908;6.916;2023-07-31T13:53:21;3.03;;;1.90;;
76262;SDS011;65080;50.908;6.916;2023-07-31T13:55:49;5.30;;;3.70;;
76262;SDS011;65080;50.908;6.916;2023-07-31T13:58:17;4.40;;;2.10;;
76262;SDS011;65080;50.908;6.916;2023-07-31T14:00:46;2.80;;;1.80;;
76262;SDS011;65080;50.908;6.916;2023-07-31T14:03:14;3.93;;;2.20;;
76262;SDS011;65080;50.908;6.916;2023-07-31T14:05:43;3.03;;;2.10;;
76262;SDS011;65080;50.908;6.916;2023-07-31T14:08:11;2.90;;;2.00;;
76262;SDS011;65080;50.908;6.916;2023-07-31T14:10:41;4.30;;;2.20;;
76262;SDS011;65080;50.908;6.916;2023-07-31T14:13:09;4.90;;;1.73;;
76262;SDS011;65080;50.908;6.916;2023-07-31T14:15:37;3.27;;;2.17;;
76262;SDS011;65080;50.908;6.916;2023-07-31T14:18:07;2.60;;;1.30;;
76262;SDS011;65080;50.908;6.916;2023-07-31T14:20:35;4.13;;;1.77;;
76262;SDS011;65080;50.908;6.916;2023-07-31T14:23:04;2.47;;;1.60;;
76262;SDS011;65080;50.908;6.916;2023-07-31T14:25:32;1.97;;;1.77;;
76262;SDS011;65080;50.908;6.916;2023-07-31T14:28:02;5.53;;;2.33;;
76262;SDS011;65080;50.908;6.916;2023-07-31T14:30:32;3.27;;;1.83;;
76262;SDS011;65080;50.908;6.916;2023-07-31T14:33:00;3.27;;;2.37;;
76262;SDS011;65080;50.908;6.916;2023-07-31T14:35:29;4.97;;;2.27;;
76262;SDS011;65080;50.908;6.916;2023-07-31T14:37:57;9.80;;;7.40;;
76262;SDS011;65080;50.908;6.916;2023-07-31T14:40:25;2.97;;;2.27;;
76262;SDS011;65080;50.908;6.916;2023-07-31T14:42:54;3.10;;;2.23;;
76262;SDS011;65080;50.908;6.916;2023-07-31T14:45:23;3.43;;;2.70;;
76262;SDS011;65080;50.908;6.916;2023-07-31T14:47:51;3.17;;;2.20;;
76262;SDS011;65080;50.908;6.916;2023-07-31T14:50:20;4.00;;;2.40;;
76262;SDS011;65080;50.908;6.916;2023-07-31T14:52:49;3.50;;;2.23;;
76262;SDS011;65080;50.908;6.916;2023-07-31T14:55:18;4.50;;;2.07;;
76262;SDS011;65080;50.908;6.916;2023-07-31T14:57:46;3.57;;;2.40;;
76262;SDS011;65080;50.908;6.916;2023-07-31T15:00:15;3.30;;;2.37;;
76262;SDS011;65080;50.908;6.916;2023-07-31T15:02:44;5.87;;;2.40;;
76262;SDS011;65080;50.908;6.916;2023-07-31T15:05:13;4.67;;;2.90;;
76262;SDS011;65080;50.908;6.916;2023-07-31T15:07:41;4.40;;;2.37;;